sensor_id;sensor_type;location;lat;lon;timestamp;pressure;altitude;pressure_sealevel;temperature;humidity
75942;BME280;64622;46.220;19.878;2022-11-15T00:00:19;101067.16;;;4.00;100.00
75942;BME280;64622;46.220;19.878;2022-11-15T00:03:04;101069.91;;;3.98;100.00
75942;BME280;64622;46.220;19.878;2022-11-15T00:05:49;101075.66;;;4.05;100.00
75942;BME280;64622;46.220;19.878;2022-11-15T00:08:35;101067.06;;;4.01;100.00
75942;BME280;64622;46.220;19.878;2022-11-15T00:11:19;101076.53;;;4.05;100.00
75942;BME280;64622;46.220;19.878;2022-11-15T00:14:04;101077.72;;;4.14;100.00
75942;BME280;64622;46.220;19.878;2022-11-15T00:16:49;101080.94;;;4.19;100.00
75942;BME280;64622;46.220;19.878;2022-11-15T00:19:34;101064.56;;;4.12;100.00
75942;BME280;64622;46.220;19.878;2022-11-15T00:22:19;101067.22;;;4.12;100.00
75942;BME280;64622;46.220;19.878;2022-11-15T00:25:05;101077.81;;;4.12;100.00
75942;BME280;64622;46.220;19.878;2022-11-15T00:27:50;101071.31;;;4.04;100.00
75942;BME280;64622;46.220;19.878;2022-11-15T00:30:36;101057.13;;;4.05;100.00
75942;BME280;64622;46.220;19.878;2022-11-15T00:33:21;101050.72;;;3.95;100.00
75942;BME280;64622;46.220;19.878;2022-11-15T00:36:08;101046.38;;;3.94;100.00
75942;BME280;64622;46.220;19.878;2022-11-15T00:38:54;101059.78;;;4.05;100.00
75942;BME280;64622;46.220;19.878;2022-11-15T00:41:39;101058.81;;;4.06;100.00
75942;BME280;64622;46.220;19.878;2022-11-15T00:44:24;101053.28;;;3.96;100.00
75942;BME280;64622;46.220;19.878;2022-11-15T00:47:09;101049.78;;;3.96;100.00
75942;BME280;64622;46.220;19.878;2022-11-15T00:49:55;101045.25;;;3.98;100.00
75942;BME280;64622;46.220;19.878;2022-11-15T00:52:41;101046.38;;;3.94;100.00
75942;BME280;64622;46.220;19.878;2022-11-15T00:55:26;101039.41;;;3.93;100.00
75942;BME280;64622;46.220;19.878;2022-11-15T00:58:11;101041.00;;;3.95;100.00
75942;BME280;64622;46.220;19.878;2022-11-15T01:00:56;101036.34;;;3.99;100.00
75942;BME280;64622;46.220;19.878;2022-11-15T01:03:42;101042.50;;;3.99;100.00
75942;BME280;64622;46.220;19.878;2022-11-15T01:06:27;101038.44;;;3.94;100.00
75942;BME280;64622;46.220;19.878;2022-11-15T01:09:12;101029.06;;;3.88;100.00
75942;BME280;64622;46.220;19.878;2022-11-15T01:11:58;101025.19;;;3.94;100.00
75942;BME280;64622;46.220;19.878;2022-11-15T01:14:43;101028.72;;;3.94;100.00
75942;BME280;64622;46.220;19.878;2022-11-15T01:17:30;101037.84;;;4.03;100.00
75942;BME280;64622;46.220;19.878;2022-11-15T01:20:16;101026.13;;;4.07;100.00
75942;BME280;64622;46.220;19.878;2022-11-15T01:23:01;101028.22;;;4.02;100.00
75942;BME280;64622;46.220;19.878;2022-11-15T01:25:46;101023.25;;;4.10;100.00
75942;BME280;64622;46.220;19.878;2022-11-15T01:28:36;101030.91;;;4.14;100.00
75942;BME280;64622;46.220;19.878;2022-11-15T01:31:21;101026.16;;;4.19;100.00
75942;BME280;64622;46.220;19.878;2022-11-15T01:34:06;101014.06;;;4.15;100.00
75942;BME280;64622;46.220;19.878;2022-11-15T01:36:51;101020.84;;;4.19;100.00
75942;BME280;64622;46.220;19.878;2022-11-15T01:39:38;101028.59;;;4.22;100.00
75942;BME280;64622;46.220;19.878;2022-11-15T01:42:23;101020.00;;;4.19;100.00
75942;BME280;64622;46.220;19.878;2022-11-15T01:45:15;101013.47;;;4.24;100.00
75942;BME280;64622;46.220;19.878;2022-11-15T01:48:20;101020.94;;;4.18;100.00
75942;BME280;64622;46.220;19.878;2022-11-15T01:51:09;101005.66;;;4.09;100.00
75942;BME280;64622;46.220;19.878;2022-11-15T01:54:00;101012.31;;;4.02;100.00
75942;BME280;64622;46.220;19.878;2022-11-15T01:56:53;101000.63;;;3.92;100.00
75942;BME280;64622;46.220;19.878;2022-11-15T01:59:43;100997.84;;;3.93;100.00
75942;BME280;64622;46.220;19.878;2022-11-15T02:02:30;101009.94;;;3.97;100.00
75942;BME280;64622;46.220;19.878;2022-11-15T02:05:15;101003.28;;;3.92;100.00
75942;BME280;64622;46.220;19.878;2022-11-15T02:08:00;101007.22;;;3.99;100.00
75942;BME280;64622;46.220;19.878;2022-11-15T02:10:46;101007.13;;;4.00;100.00
75942;BME280;64622;46.220;19.878;2022-11-15T02:13:31;101007.66;;;4.05;100.00
75942;BME280;64622;46.220;19.878;2022-11-15T02:20:04;101003.75;;;4.11;100.00
75942;BME280;64622;46.220;19.878;2022-11-15T02:28:45;100994.97;;;4.10;100.00
75942;BME280;64622;46.220;19.878;2022-11-15T02:34:50;100996.44;;;4.02;100.00
75942;BME280;64622;46.220;19.878;2022-11-15T02:37:45;100995.47;;;4.03;100.00
75942;BME280;64622;46.220;19.878;2022-11-15T02:40:56;100996.03;;;4.08;100.00
75942;BME280;64622;46.220;19.878;2022-11-15T02:43:58;100989.75;;;4.09;100.00
75942;BME280;64622;46.220;19.878;2022-11-15T02:46:58;100986.44;;;3.93;100.00
75942;BME280;64622;46.220;19.878;2022-11-15T02:50:10;100990.78;;;3.94;100.00
75942;BME280;64622;46.220;19.878;2022-11-15T02:52:55;100991.22;;;4.00;100.00
75942;BME280;64622;46.220;19.878;2022-11-15T02:55:45;100984.88;;;4.03;100.00
75942;BME280;64622;46.220;19.878;2022-11-15T03:04:44;100985.56;;;4.19;100.00
75942;BME280;64622;46.220;19.878;2022-11-15T03:08:26;100979.63;;;4.15;100.00
75942;BME280;64622;46.220;19.878;2022-11-15T03:19:50;100970.78;;;4.02;100.00
75942;BME280;64622;46.220;19.878;2022-11-15T03:22:43;100957.62;;;4.01;100.00
75942;BME280;64622;46.220;19.878;2022-11-15T03:25:32;100967.50;;;3.99;100.00
75942;BME280;64622;46.220;19.878;2022-11-15T03:28:28;100950.31;;;3.92;100.00
75942;BME280;64622;46.220;19.878;2022-11-15T03:31:16;100945.63;;;3.83;100.00
75942;BME280;64622;46.220;19.878;2022-11-15T03:34:33;100953.25;;;3.87;100.00
75942;BME280;64622;46.220;19.878;2022-11-15T03:37:22;100937.97;;;3.78;100.00
75942;BME280;64622;46.220;19.878;2022-11-15T03:40:10;100934.94;;;3.84;100.00
75942;BME280;64622;46.220;19.878;2022-11-15T03:46:19;100930.44;;;3.72;100.00
75942;BME280;64622;46.220;19.878;2022-11-15T03:49:12;100943.16;;;3.80;100.00
75942;BME280;64622;46.220;19.878;2022-11-15T03:52:01;100941.66;;;3.76;100.00
75942;BME280;64622;46.220;19.878;2022-11-15T03:54:56;100941.78;;;3.74;100.00
75942;BME280;64622;46.220;19.878;2022-11-15T03:57:41;100935.06;;;3.69;100.00
75942;BME280;64622;46.220;19.878;2022-11-15T04:00:28;100953.84;;;3.78;100.00
75942;BME280;64622;46.220;19.878;2022-11-15T04:03:13;100938.81;;;3.79;100.00
75942;BME280;64622;46.220;19.878;2022-11-15T04:05:58;100932.47;;;3.81;100.00
75942;BME280;64622;46.220;19.878;2022-11-15T04:08:44;100924.72;;;3.78;100.00
75942;BME280;64622;46.220;19.878;2022-11-15T04:11:29;100927.91;;;3.83;100.00
75942;BME280;64622;46.220;19.878;2022-11-15T04:14:14;100926.22;;;3.82;100.00
75942;BME280;64622;46.220;19.878;2022-11-15T04:16:59;100920.94;;;3.82;100.00
75942;BME280;64622;46.220;19.878;2022-11-15T04:19:48;100917.84;;;3.76;100.00
75942;BME280;64622;46.220;19.878;2022-11-15T04:22:53;100922.28;;;3.75;100.00
75942;BME280;64622;46.220;19.878;2022-11-15T04:25:59;100907.06;;;3.79;100.00
75942;BME280;64622;46.220;19.878;2022-11-15T04:28:45;100889.13;;;3.70;100.00
75942;BME280;64622;46.220;19.878;2022-11-15T04:31:48;100894.97;;;3.75;100.00
75942;BME280;64622;46.220;19.878;2022-11-15T04:34:34;100901.41;;;3.71;100.00
75942;BME280;64622;46.220;19.878;2022-11-15T04:37:19;100909.59;;;3.80;100.00
75942;BME280;64622;46.220;19.878;2022-11-15T04:40:05;100913.22;;;3.79;100.00
75942;BME280;64622;46.220;19.878;2022-11-15T04:42:50;100907.06;;;3.79;100.00
75942;BME280;64622;46.220;19.878;2022-11-15T04:45:35;100913.62;;;3.86;100.00
75942;BME280;64622;46.220;19.878;2022-11-15T04:48:20;100906.34;;;3.89;100.00
75942;BME280;64622;46.220;19.878;2022-11-15T04:51:05;100904.44;;;3.91;100.00
75942;BME280;64622;46.220;19.878;2022-11-15T04:53:50;100906.25;;;4.03;100.00
75942;BME280;64622;46.220;19.878;2022-11-15T04:56:35;100913.56;;;4.00;100.00
75942;BME280;64622;46.220;19.878;2022-11-15T04:59:20;100904.44;;;3.91;100.00
75942;BME280;64622;46.220;19.878;2022-11-15T05:02:05;100906.47;;;4.00;100.00
75942;BME280;64622;46.220;19.878;2022-11-15T05:04:50;100908.28;;;4.00;100.00
75942;BME280;64622;46.220;19.878;2022-11-15T05:07:35;100902.56;;;4.06;100.00
75942;BME280;64622;46.220;19.878;2022-11-15T05:10:21;100893.03;;;4.16;100.00
75942;BME280;64622;46.220;19.878;2022-11-15T05:13:06;100906.72;;;4.22;100.00
75942;BME280;64622;46.220;19.878;2022-11-15T05:15:51;100913.59;;;4.25;100.00
75942;BME280;64622;46.220;19.878;2022-11-15T05:18:37;100908.13;;;4.28;100.00
75942;BME280;64622;46.220;19.878;2022-11-15T05:21:25;100900.25;;;4.26;100.00
75942;BME280;64622;46.220;19.878;2022-11-15T05:24:10;100901.75;;;4.30;100.00
75942;BME280;64622;46.220;19.878;2022-11-15T05:26:55;100895.94;;;4.38;100.00
75942;BME280;64622;46.220;19.878;2022-11-15T05:29:42;100885.44;;;4.36;100.00
75942;BME280;64622;46.220;19.878;2022-11-15T05:32:28;100891.59;;;4.37;100.00
75942;BME280;64622;46.220;19.878;2022-11-15T05:35:20;100886.41;;;4.35;100.00
75942;BME280;64622;46.220;19.878;2022-11-15T05:38:06;100873.78;;;4.26;100.00
75942;BME280;64622;46.220;19.878;2022-11-15T05:40:52;100872.62;;;4.30;100.00
75942;BME280;64622;46.220;19.878;2022-11-15T05:43:38;100871.13;;;4.26;100.00
75942;BME280;64622;46.220;19.878;2022-11-15T05:46:24;100883.66;;;4.37;100.00
75942;BME280;64622;46.220;19.878;2022-11-15T05:49:12;100880.13;;;4.36;100.00
75942;BME280;64622;46.220;19.878;2022-11-15T05:51:59;100891.91;;;4.45;100.00
75942;BME280;64622;46.220;19.878;2022-11-15T05:54:45;100898.06;;;4.45;100.00
75942;BME280;64622;46.220;19.878;2022-11-15T05:57:30;100897.31;;;4.43;100.00
75942;BME280;64622;46.220;19.878;2022-11-15T06:00:15;100879.94;;;4.39;100.00
75942;BME280;64622;46.220;19.878;2022-11-15T06:03:00;100883.00;;;4.46;100.00
75942;BME280;64622;46.220;19.878;2022-11-15T06:05:45;100887.47;;;4.45;100.00
75942;BME280;64622;46.220;19.878;2022-11-15T06:08:30;100887.47;;;4.45;100.00
75942;BME280;64622;46.220;19.878;2022-11-15T06:11:15;100880.13;;;4.49;100.00
75942;BME280;64622;46.220;19.878;2022-11-15T06:14:00;100888.72;;;4.52;100.00
75942;BME280;64622;46.220;19.878;2022-11-15T06:16:45;100878.88;;;4.42;100.00
75942;BME280;64622;46.220;19.878;2022-11-15T06:19:30;100900.72;;;4.58;100.00
75942;BME280;64622;46.220;19.878;2022-11-15T06:22:17;100906.66;;;4.61;100.00
75942;BME280;64622;46.220;19.878;2022-11-15T06:25:02;100889.56;;;4.65;100.00
75942;BME280;64622;46.220;19.878;2022-11-15T06:27:55;100884.37;;;4.64;100.00
75942;BME280;64622;46.220;19.878;2022-11-15T06:30:40;100887.87;;;4.77;100.00
75942;BME280;64622;46.220;19.878;2022-11-15T06:33:25;100890.19;;;4.81;100.00
75942;BME280;64622;46.220;19.878;2022-11-15T06:36:11;100887.34;;;4.84;100.00
75942;BME280;64622;46.220;19.878;2022-11-15T06:39:03;100890.28;;;4.92;100.00
75942;BME280;64622;46.220;19.878;2022-11-15T06:41:48;100887.84;;;4.89;100.00
75942;BME280;64622;46.220;19.878;2022-11-15T06:44:33;100896.09;;;4.97;100.00
75942;BME280;64622;46.220;19.878;2022-11-15T06:47:18;100890.87;;;5.08;100.00
75942;BME280;64622;46.220;19.878;2022-11-15T06:50:05;100882.97;;;5.19;100.00
75942;BME280;64622;46.220;19.878;2022-11-15T06:52:50;100883.63;;;5.23;100.00
75942;BME280;64622;46.220;19.878;2022-11-15T06:55:35;100869.81;;;5.30;100.00
75942;BME280;64622;46.220;19.878;2022-11-15T06:58:20;100874.88;;;5.33;100.00
75942;BME280;64622;46.220;19.878;2022-11-15T07:01:11;100872.41;;;5.43;100.00
75942;BME280;64622;46.220;19.878;2022-11-15T07:03:56;100868.34;;;5.50;100.00
75942;BME280;64622;46.220;19.878;2022-11-15T07:06:41;100876.69;;;5.56;100.00
75942;BME280;64622;46.220;19.878;2022-11-15T07:09:26;100874.06;;;5.56;100.00
75942;BME280;64622;46.220;19.878;2022-11-15T07:12:11;100888.78;;;5.60;100.00
75942;BME280;64622;46.220;19.878;2022-11-15T07:14:56;100883.84;;;5.67;100.00
75942;BME280;64622;46.220;19.878;2022-11-15T07:17:41;100869.25;;;5.61;100.00
75942;BME280;64622;46.220;19.878;2022-11-15T07:20:26;100872.00;;;5.60;100.00
75942;BME280;64622;46.220;19.878;2022-11-15T07:23:11;100884.59;;;5.69;100.00
75942;BME280;64622;46.220;19.878;2022-11-15T07:25:57;100885.84;;;5.76;100.00
75942;BME280;64622;46.220;19.878;2022-11-15T07:28:43;100866.84;;;5.69;100.00
75942;BME280;64622;46.220;19.878;2022-11-15T07:31:28;100880.53;;;5.76;100.00
75942;BME280;64622;46.220;19.878;2022-11-15T07:34:13;100883.12;;;5.65;100.00
75942;BME280;64622;46.220;19.878;2022-11-15T07:36:58;100872.56;;;5.76;100.00
75942;BME280;64622;46.220;19.878;2022-11-15T07:39:43;100867.97;;;5.91;100.00
75942;BME280;64622;46.220;19.878;2022-11-15T07:42:31;100850.87;;;5.82;99.46
75942;BME280;64622;46.220;19.878;2022-11-15T07:45:40;100872.19;;;5.93;99.58
75942;BME280;64622;46.220;19.878;2022-11-15T07:48:26;100869.41;;;5.94;100.00
75942;BME280;64622;46.220;19.878;2022-11-15T07:51:15;100858.53;;;5.87;99.57
75942;BME280;64622;46.220;19.878;2022-11-15T07:54:01;100851.56;;;5.97;100.00
75942;BME280;64622;46.220;19.878;2022-11-15T07:56:46;100839.81;;;5.88;100.00
75942;BME280;64622;46.220;19.878;2022-11-15T07:59:31;100846.72;;;6.02;100.00
75942;BME280;64622;46.220;19.878;2022-11-15T08:02:16;100832.84;;;5.98;100.00
75942;BME280;64622;46.220;19.878;2022-11-15T08:05:02;100844.78;;;6.03;100.00
75942;BME280;64622;46.220;19.878;2022-11-15T08:07:48;100841.06;;;6.06;100.00
75942;BME280;64622;46.220;19.878;2022-11-15T08:10:33;100846.63;;;6.03;100.00
75942;BME280;64622;46.220;19.878;2022-11-15T08:13:18;100858.06;;;6.03;100.00
75942;BME280;64622;46.220;19.878;2022-11-15T08:16:03;100854.00;;;6.11;100.00
75942;BME280;64622;46.220;19.878;2022-11-15T08:18:50;100838.00;;;5.99;100.00
75942;BME280;64622;46.220;19.878;2022-11-15T08:21:35;100844.88;;;5.91;100.00
75942;BME280;64622;46.220;19.878;2022-11-15T08:24:21;100837.41;;;5.96;100.00
75942;BME280;64622;46.220;19.878;2022-11-15T08:27:06;100838.66;;;6.03;100.00
75942;BME280;64622;46.220;19.878;2022-11-15T08:29:59;100837.06;;;6.01;100.00
75942;BME280;64622;46.220;19.878;2022-11-15T08:32:44;100839.25;;;6.07;100.00
75942;BME280;64622;46.220;19.878;2022-11-15T08:35:30;100851.56;;;6.07;100.00
75942;BME280;64622;46.220;19.878;2022-11-15T08:38:15;100840.22;;;6.06;100.00
75942;BME280;64622;46.220;19.878;2022-11-15T08:41:02;100844.31;;;6.09;100.00
75942;BME280;64622;46.220;19.878;2022-11-15T08:43:47;100845.56;;;6.17;100.00
75942;BME280;64622;46.220;19.878;2022-11-15T08:46:32;100852.47;;;6.30;100.00
75942;BME280;64622;46.220;19.878;2022-11-15T08:49:17;100846.94;;;6.33;100.00
75942;BME280;64622;46.220;19.878;2022-11-15T08:52:02;100850.53;;;6.32;100.00
75942;BME280;64622;46.220;19.878;2022-11-15T08:54:47;100848.50;;;6.36;100.00
75942;BME280;64622;46.220;19.878;2022-11-15T08:57:32;100851.66;;;6.41;100.00
75942;BME280;64622;46.220;19.878;2022-11-15T09:00:18;100838.47;;;6.39;100.00
75942;BME280;64622;46.220;19.878;2022-11-15T09:03:05;100842.59;;;6.43;100.00
75942;BME280;64622;46.220;19.878;2022-11-15T09:05:58;100852.84;;;6.58;100.00
75942;BME280;64622;46.220;19.878;2022-11-15T09:08:43;100850.47;;;6.56;100.00
75942;BME280;64622;46.220;19.878;2022-11-15T09:11:28;100837.88;;;6.57;100.00
75942;BME280;64622;46.220;19.878;2022-11-15T09:14:14;100826.38;;;6.57;100.00
75942;BME280;64622;46.220;19.878;2022-11-15T09:16:59;100834.22;;;6.69;100.00
75942;BME280;64622;46.220;19.878;2022-11-15T09:19:45;100825.31;;;6.82;99.94
75942;BME280;64622;46.220;19.878;2022-11-15T09:22:29;100824.66;;;7.00;99.22
75942;BME280;64622;46.220;19.878;2022-11-15T09:25:14;100824.91;;;7.08;98.75
75942;BME280;64622;46.220;19.878;2022-11-15T09:27:59;100815.22;;;6.96;98.24
75942;BME280;64622;46.220;19.878;2022-11-15T09:30:45;100814.97;;;7.10;98.70
75942;BME280;64622;46.220;19.878;2022-11-15T09:33:30;100815.78;;;7.22;97.81
75942;BME280;64622;46.220;19.878;2022-11-15T09:36:15;100808.69;;;7.11;98.14
75942;BME280;64622;46.220;19.878;2022-11-15T09:39:01;100799.31;;;7.28;97.91
75942;BME280;64622;46.220;19.878;2022-11-15T09:42:05;100809.22;;;7.37;97.47
75942;BME280;64622;46.220;19.878;2022-11-15T09:48:06;100809.25;;;7.57;95.87
75942;BME280;64622;46.220;19.878;2022-11-15T09:50:46;100797.59;;;7.69;95.95
75942;BME280;64622;46.220;19.878;2022-11-15T09:53:38;100797.66;;;7.58;95.12
75942;BME280;64622;46.220;19.878;2022-11-15T10:01:39;100795.97;;;7.78;95.52
75942;BME280;64622;46.220;19.878;2022-11-15T10:04:08;100789.00;;;7.66;95.78
75942;BME280;64622;46.220;19.878;2022-11-15T10:06:40;100793.72;;;7.62;96.11
75942;BME280;64622;46.220;19.878;2022-11-15T10:09:26;100783.75;;;7.75;96.81
75942;BME280;64622;46.220;19.878;2022-11-15T10:11:56;100787.56;;;7.82;96.28
75942;BME280;64622;46.220;19.878;2022-11-15T10:14:25;100771.78;;;7.69;95.73
75942;BME280;64622;46.220;19.878;2022-11-15T10:17:21;100766.34;;;7.92;96.46
75942;BME280;64622;46.220;19.878;2022-11-15T10:20:10;100758.84;;;8.27;94.92
75942;BME280;64622;46.220;19.878;2022-11-15T10:22:50;100756.16;;;8.06;94.57
75942;BME280;64622;46.220;19.878;2022-11-15T10:25:29;100748.59;;;8.02;94.99
75942;BME280;64622;46.220;19.878;2022-11-15T10:28:06;100746.56;;;8.45;94.13
75942;BME280;64622;46.220;19.878;2022-11-15T10:30:39;100748.53;;;8.43;93.28
75942;BME280;64622;46.220;19.878;2022-11-15T10:35:44;100756.38;;;8.14;95.68
75942;BME280;64622;46.220;19.878;2022-11-15T10:38:13;100758.63;;;8.39;94.86
75942;BME280;64622;46.220;19.878;2022-11-15T10:40:41;100764.41;;;8.93;93.43
75942;BME280;64622;46.220;19.878;2022-11-15T10:43:18;100752.88;;;8.83;92.47
75942;BME280;64622;46.220;19.878;2022-11-15T10:45:46;100749.25;;;8.84;91.12
75942;BME280;64622;46.220;19.878;2022-11-15T10:50:44;100754.03;;;9.00;92.89
75942;BME280;64622;46.220;19.878;2022-11-15T10:55:54;100755.06;;;8.59;93.36
75942;BME280;64622;46.220;19.878;2022-11-15T10:58:30;100750.06;;;8.85;95.00
75942;BME280;64622;46.220;19.878;2022-11-15T11:01:11;100736.09;;;8.62;93.63
75942;BME280;64622;46.220;19.878;2022-11-15T11:03:39;100728.06;;;8.53;94.00
75942;BME280;64622;46.220;19.878;2022-11-15T11:06:10;100718.09;;;8.55;94.65
75942;BME280;64622;46.220;19.878;2022-11-15T11:08:37;100724.63;;;8.71;93.91
75942;BME280;64622;46.220;19.878;2022-11-15T11:11:04;100729.28;;;8.79;94.57
75942;BME280;64622;46.220;19.878;2022-11-15T11:21:26;100708.50;;;8.92;93.87
75942;BME280;64622;46.220;19.878;2022-11-15T11:24:14;100705.84;;;9.30;93.21
75942;BME280;64622;46.220;19.878;2022-11-15T11:29:20;100697.50;;;9.71;90.84
75942;BME280;64622;46.220;19.878;2022-11-15T11:45:15;100684.41;;;9.87;90.43
75942;BME280;64622;46.220;19.878;2022-11-15T11:48:15;100671.19;;;9.76;90.04
75942;BME280;64622;46.220;19.878;2022-11-15T11:50:42;100681.78;;;9.58;91.60
75942;BME280;64622;46.220;19.878;2022-11-15T11:53:14;100661.38;;;9.76;90.96
75942;BME280;64622;46.220;19.878;2022-11-15T11:56:04;100662.69;;;10.09;89.20
75942;BME280;64622;46.220;19.878;2022-11-15T11:58:38;100653.44;;;10.57;88.06
75942;BME280;64622;46.220;19.878;2022-11-15T12:01:26;100633.63;;;12.06;82.14
75942;BME280;64622;46.220;19.878;2022-11-15T12:03:58;100623.53;;;13.39;76.78
75942;BME280;64622;46.220;19.878;2022-11-15T12:06:41;100630.06;;;13.61;75.15
75942;BME280;64622;46.220;19.878;2022-11-15T12:09:18;100633.13;;;13.50;75.56
75942;BME280;64622;46.220;19.878;2022-11-15T12:17:39;100623.75;;;11.81;78.66
75942;BME280;64622;46.220;19.878;2022-11-15T12:20:22;100626.53;;;11.29;82.15
75942;BME280;64622;46.220;19.878;2022-11-15T12:25:29;100638.62;;;10.80;85.19
75942;BME280;64622;46.220;19.878;2022-11-15T12:28:07;100641.59;;;10.60;88.07
75942;BME280;64622;46.220;19.878;2022-11-15T12:30:44;100626.91;;;10.64;87.03
75942;BME280;64622;46.220;19.878;2022-11-15T12:33:33;100626.91;;;10.64;87.37
75942;BME280;64622;46.220;19.878;2022-11-15T12:36:08;100611.28;;;10.59;87.15
75942;BME280;64622;46.220;19.878;2022-11-15T12:38:55;100608.41;;;10.53;87.93
75942;BME280;64622;46.220;19.878;2022-11-15T12:41:24;100627.31;;;10.15;88.73
75942;BME280;64622;46.220;19.878;2022-11-15T12:43:52;100618.50;;;10.32;89.14
75942;BME280;64622;46.220;19.878;2022-11-15T12:49:09;100595.03;;;10.88;86.07
75942;BME280;64622;46.220;19.878;2022-11-15T12:59:53;100595.78;;;10.45;88.69
75942;BME280;64622;46.220;19.878;2022-11-15T13:04:54;100587.06;;;10.61;87.66
75942;BME280;64622;46.220;19.878;2022-11-15T13:17:54;100597.88;;;10.24;90.38
75942;BME280;64622;46.220;19.878;2022-11-15T13:20:32;100595.28;;;10.05;90.94
75942;BME280;64622;46.220;19.878;2022-11-15T13:23:02;100587.13;;;10.07;91.21
75942;BME280;64622;46.220;19.878;2022-11-15T13:31:00;100581.72;;;10.16;90.94
75942;BME280;64622;46.220;19.878;2022-11-15T13:36:02;100569.63;;;10.12;90.70
75942;BME280;64622;46.220;19.878;2022-11-15T13:38:35;100558.44;;;10.26;91.06
75942;BME280;64622;46.220;19.878;2022-11-15T13:41:20;100553.03;;;10.09;90.75
75942;BME280;64622;46.220;19.878;2022-11-15T13:43:48;100546.28;;;10.14;90.82
75942;BME280;64622;46.220;19.878;2022-11-15T13:46:31;100556.00;;;10.33;90.31
75942;BME280;64622;46.220;19.878;2022-11-15T13:49:05;100541.63;;;10.34;89.86
75942;BME280;64622;46.220;19.878;2022-11-15T13:51:42;100539.16;;;10.23;91.41
75942;BME280;64622;46.220;19.878;2022-11-15T13:56:45;100542.59;;;10.15;91.97
75942;BME280;64622;46.220;19.878;2022-11-15T13:59:21;100541.81;;;10.05;92.34
75942;BME280;64622;46.220;19.878;2022-11-15T14:01:51;100545.06;;;10.26;91.34
75942;BME280;64622;46.220;19.878;2022-11-15T14:04:21;100531.34;;;10.29;91.00
75942;BME280;64622;46.220;19.878;2022-11-15T14:06:53;100521.59;;;10.38;90.65
75942;BME280;64622;46.220;19.878;2022-11-15T14:09:36;100519.06;;;10.36;90.03
75942;BME280;64622;46.220;19.878;2022-11-15T14:14:48;100516.31;;;10.28;89.65
75942;BME280;64622;46.220;19.878;2022-11-15T14:19:57;100515.91;;;10.23;90.01
75942;BME280;64622;46.220;19.878;2022-11-15T14:22:26;100517.66;;;10.15;90.21
75942;BME280;64622;46.220;19.878;2022-11-15T14:25:28;100519.81;;;10.11;91.07
75942;BME280;64622;46.220;19.878;2022-11-15T14:30:41;100508.88;;;10.05;91.18
75942;BME280;64622;46.220;19.878;2022-11-15T14:33:38;100498.81;;;9.89;91.61
75942;BME280;64622;46.220;19.878;2022-11-15T14:36:12;100508.91;;;9.95;91.87
75942;BME280;64622;46.220;19.878;2022-11-15T14:38:40;100496.28;;;9.88;92.00
75942;BME280;64622;46.220;19.878;2022-11-15T14:41:25;100498.97;;;9.88;92.34
75942;BME280;64622;46.220;19.878;2022-11-15T14:43:53;100489.56;;;9.84;92.59
75942;BME280;64622;46.220;19.878;2022-11-15T14:46:19;100480.00;;;9.81;92.95
75942;BME280;64622;46.220;19.878;2022-11-15T14:48:46;100487.87;;;9.83;92.71
75942;BME280;64622;46.220;19.878;2022-11-15T14:51:15;100480.75;;;9.74;93.29
75942;BME280;64622;46.220;19.878;2022-11-15T14:53:43;100479.50;;;9.68;93.55
75942;BME280;64622;46.220;19.878;2022-11-15T14:56:10;100479.81;;;9.65;93.60
75942;BME280;64622;46.220;19.878;2022-11-15T14:58:37;100489.91;;;9.71;93.76
75942;BME280;64622;46.220;19.878;2022-11-15T15:01:16;100487.69;;;9.67;93.82
75942;BME280;64622;46.220;19.878;2022-11-15T15:03:44;100482.88;;;9.70;93.67
75942;BME280;64622;46.220;19.878;2022-11-15T15:06:11;100491.03;;;9.69;93.64
75942;BME280;64622;46.220;19.878;2022-11-15T15:08:40;100483.16;;;9.67;93.83
75942;BME280;64622;46.220;19.878;2022-11-15T15:11:12;100485.97;;;9.66;93.91
75942;BME280;64622;46.220;19.878;2022-11-15T15:13:41;100482.03;;;9.70;93.93
75942;BME280;64622;46.220;19.878;2022-11-15T15:16:07;100484.41;;;9.73;93.55
75942;BME280;64622;46.220;19.878;2022-11-15T15:18:34;100494.34;;;9.80;93.36
75942;BME280;64622;46.220;19.878;2022-11-15T15:21:01;100480.59;;;9.75;93.50
75942;BME280;64622;46.220;19.878;2022-11-15T15:23:33;100483.41;;;9.74;93.52
75942;BME280;64622;46.220;19.878;2022-11-15T15:26:01;100483.28;;;9.75;93.68
75942;BME280;64622;46.220;19.878;2022-11-15T15:28:28;100466.25;;;9.76;93.24
75942;BME280;64622;46.220;19.878;2022-11-15T15:30:54;100467.78;;;9.79;93.26
75942;BME280;64622;46.220;19.878;2022-11-15T15:33:21;100465.84;;;9.71;93.44
75942;BME280;64622;46.220;19.878;2022-11-15T15:35:47;100481.41;;;9.76;93.43
75942;BME280;64622;46.220;19.878;2022-11-15T15:38:14;100476.94;;;9.76;93.39
75942;BME280;64622;46.220;19.878;2022-11-15T15:40:41;100468.50;;;9.71;93.40
75942;BME280;64622;46.220;19.878;2022-11-15T15:43:08;100477.06;;;9.75;93.30
75942;BME280;64622;46.220;19.878;2022-11-15T15:45:39;100483.12;;;9.77;93.48
75942;BME280;64622;46.220;19.878;2022-11-15T15:48:14;100473.56;;;9.74;93.46
75942;BME280;64622;46.220;19.878;2022-11-15T15:50:42;100469.16;;;9.83;93.10
75942;BME280;64622;46.220;19.878;2022-11-15T15:53:10;100454.25;;;9.80;93.12
75942;BME280;64622;46.220;19.878;2022-11-15T15:55:37;100454.16;;;9.72;93.24
75942;BME280;64622;46.220;19.878;2022-11-15T15:58:04;100460.59;;;9.79;93.46
75942;BME280;64622;46.220;19.878;2022-11-15T16:00:32;100467.63;;;9.80;93.46
75942;BME280;64622;46.220;19.878;2022-11-15T16:03:02;100469.91;;;9.75;93.39